Aviation Digital Data Service (ADDS)

Output produced by METARs form (1224 UTC 19 January 2019)
found at http://www.aviationweather.gov/metar/data/
 
METAR text: CYFC 191200Z AUTO 32008G15KT 9SM CLR M16/M23 A3025 RMK SLP247
Conditions at: CYFC (FREDERICTON AIRP, NB, CA) observed 1200 UTC 19 January 2019
Temperature: -16.0°C ( 3°F)
Dewpoint: -23.0°C (-9°F) [RH = 55%]
Pressure (altimeter): 30.25 inches Hg (1024.5 mb)
[Sea-level pressure: 1024.7 mb]
Winds: from the NW (320 degrees) at 9 MPH (8 knots; 4.1 m/s)
gusting to 17 MPH (15 knots; 7.7 m/s)
Visibility: 9 miles (14 km)
Ceiling: at least 12,000 feet AGL
Clouds: sky clear below 12,000 feet AGL
Weather: no significant weather observed at this time

METAR text: CYFC 191100Z AUTO 01008KT 9SM CLR M15/M19 A3022 RMK SLP237
Conditions at: CYFC (FREDERICTON AIRP, NB, CA) observed 1100 UTC 19 January 2019
Temperature: -15.0°C ( 5°F)
Dewpoint: -19.0°C (-2°F) [RH = 71%]
Pressure (altimeter): 30.22 inches Hg (1023.5 mb)
[Sea-level pressure: 1023.7 mb]
Winds: from the N (10 degrees) at 9 MPH (8 knots; 4.1 m/s)
Visibility: 9 miles (14 km)
Ceiling: at least 12,000 feet AGL
Clouds: sky clear below 12,000 feet AGL
Weather: no significant weather observed at this time

METAR text: CYFC 191000Z AUTO 36010KT 9SM CLR M13/M17 A3018 RMK PRESRR SLP224
Conditions at: CYFC (FREDERICTON AIRP, NB, CA) observed 1000 UTC 19 January 2019
Temperature: -13.0°C ( 9°F)
Dewpoint: -17.0°C ( 1°F) [RH = 72%]
Pressure (altimeter): 30.18 inches Hg (1022.1 mb)
[Sea-level pressure: 1022.4 mb]
Winds: from the N (360 degrees) at 12 MPH (10 knots; 5.1 m/s)
Visibility: 9 miles (14 km)
Ceiling: at least 12,000 feet AGL
Clouds: sky clear below 12,000 feet AGL
Weather: no significant weather observed at this time

METAR text: CYFC 190950Z AUTO 36010KT 9SM FEW029 M13/M17 A3017 RMK WSHFT AT 0935Z PRESRR SLP220
Conditions at: CYFC (FREDERICTON AIRP, NB, CA) observed 0950 UTC 19 January 2019
Temperature: -13.0°C ( 9°F)
Dewpoint: -17.0°C ( 1°F) [RH = 72%]
Pressure (altimeter): 30.17 inches Hg (1021.8 mb)
[Sea-level pressure: 1022.0 mb]
Winds: from the N (360 degrees) at 12 MPH (10 knots; 5.1 m/s)
Visibility: 9 miles (14 km)
Ceiling: at least 12,000 feet AGL
Clouds: few clouds at 2900 feet AGL
Weather: no significant weather observed at this time

METAR text: CYFC 190900Z AUTO 28012G19KT 9SM CLR M10/M16 A3012 RMK SLP204
Conditions at: CYFC (FREDERICTON AIRP, NB, CA) observed 0900 UTC 19 January 2019
Temperature: -10.0°C (14°F)
Dewpoint: -16.0°C ( 3°F) [RH = 61%]
Pressure (altimeter): 30.12 inches Hg (1020.1 mb)
[Sea-level pressure: 1020.4 mb]
Winds: from the W (280 degrees) at 14 MPH (12 knots; 6.2 m/s)
gusting to 22 MPH (19 knots; 9.8 m/s)
Visibility: 9 miles (14 km)
Ceiling: at least 12,000 feet AGL
Clouds: sky clear below 12,000 feet AGL
Weather: no significant weather observed at this time

METAR text: CYFC 190800Z AUTO 28007KT 250V310 9SM CLR M09/M16 A3009 RMK SLP193
Conditions at: CYFC (FREDERICTON AIRP, NB, CA) observed 0800 UTC 19 January 2019
Temperature: -9.0°C (16°F)
Dewpoint: -16.0°C ( 3°F) [RH = 57%]
Pressure (altimeter): 30.09 inches Hg (1019.0 mb)
[Sea-level pressure: 1019.3 mb]
Winds: from the W (280 degrees) at 8 MPH (7 knots; 3.6 m/s)
Visibility: 9 miles (14 km)
Ceiling: at least 12,000 feet AGL
Clouds: sky clear below 12,000 feet AGL
Weather: no significant weather observed at this time

METAR text: CYFC 190700Z AUTO 28007G18KT 240V310 9SM CLR M07/M16 A3005 RMK SLP180
Conditions at: CYFC (FREDERICTON AIRP, NB, CA) observed 0700 UTC 19 January 2019
Temperature: -7.0°C (19°F)
Dewpoint: -16.0°C ( 3°F) [RH = 49%]
Pressure (altimeter): 30.05 inches Hg (1017.7 mb)
[Sea-level pressure: 1018.0 mb]
Winds: from the W (280 degrees) at 8 MPH (7 knots; 3.6 m/s)
gusting to 21 MPH (18 knots; 9.3 m/s)
Visibility: 9 miles (14 km)
Ceiling: at least 12,000 feet AGL
Clouds: sky clear below 12,000 feet AGL
Weather: no significant weather observed at this time

METAR text: CYFC 190611Z AUTO 28010G23KT 9SM FEW037 M06/M15 A3003 RMK SLP172
Conditions at: CYFC (FREDERICTON AIRP, NB, CA) observed 0611 UTC 19 January 2019
Temperature: -6.0°C (21°F)
Dewpoint: -15.0°C ( 5°F) [RH = 49%]
Pressure (altimeter): 30.03 inches Hg (1017.0 mb)
[Sea-level pressure: 1017.2 mb]
Winds: from the W (280 degrees) at 12 MPH (10 knots; 5.1 m/s)
gusting to 26 MPH (23 knots; 11.8 m/s)
Visibility: 9 miles (14 km)
Ceiling: at least 12,000 feet AGL
Clouds: few clouds at 3700 feet AGL
Weather: no significant weather observed at this time

METAR text: CYFC 190605Z AUTO 28015G27KT 250V320 8SM -SN FEW024 M05/M14 A3003 RMK PRESRR SLP171
Conditions at: CYFC (FREDERICTON AIRP, NB, CA) observed 0605 UTC 19 January 2019
Temperature: -5.0°C (23°F)
Dewpoint: -14.0°C ( 7°F) [RH = 49%]
Pressure (altimeter): 30.03 inches Hg (1017.0 mb)
[Sea-level pressure: 1017.1 mb]
Winds: from the W (280 degrees) at 17 MPH (15 knots; 7.7 m/s)
gusting to 31 MPH (27 knots; 13.9 m/s)
Visibility: 8 miles (13 km)
Ceiling: at least 12,000 feet AGL
Clouds: few clouds at 2400 feet AGL
Weather: -SN  (light snow)

METAR text: CYFC 190600Z AUTO 28013G29KT 250V320 4SM -SN FEW026 SCT037 M05/M14 A3002 RMK PRESRR SLP170
Conditions at: CYFC (FREDERICTON AIRP, NB, CA) observed 0600 UTC 19 January 2019
Temperature: -5.0°C (23°F)
Dewpoint: -14.0°C ( 7°F) [RH = 49%]
Pressure (altimeter): 30.02 inches Hg (1016.7 mb)
[Sea-level pressure: 1017.0 mb]
Winds: from the W (280 degrees) at 15 MPH (13 knots; 6.7 m/s)
gusting to 33 MPH (29 knots; 14.9 m/s)
Visibility: 4 miles ( 6 km)
Ceiling: at least 12,000 feet AGL
Clouds: few clouds at 2600 feet AGL
scattered clouds at 3700 feet AGL
Weather: -SN  (light snow)

METAR text: CYFC 190554Z AUTO 28018G29KT 5SM -SN FEW024 BKN037 M04/M13 A3001 RMK PRESRR SLP167
Conditions at: CYFC (FREDERICTON AIRP, NB, CA) observed 0554 UTC 19 January 2019
Temperature: -4.0°C (25°F)
Dewpoint: -13.0°C ( 9°F) [RH = 50%]
Pressure (altimeter): 30.01 inches Hg (1016.3 mb)
[Sea-level pressure: 1016.7 mb]
Winds: from the W (280 degrees) at 21 MPH (18 knots; 9.3 m/s)
gusting to 33 MPH (29 knots; 14.9 m/s)
Visibility: 5 miles ( 8 km)
Ceiling: 3700 feet AGL
Clouds: few clouds at 2400 feet AGL
broken clouds at 3700 feet AGL
Weather: -SN  (light snow)

METAR text: CYFC 190533Z AUTO 26010G19KT 240V300 9SM -SN SCT029 BKN037 M02/M06 A2999 RMK SLP157
Conditions at: CYFC (FREDERICTON AIRP, NB, CA) observed 0533 UTC 19 January 2019
Temperature: -2.0°C (28°F)
Dewpoint: -6.0°C (21°F) [RH = 74%]
Pressure (altimeter): 29.99 inches Hg (1015.7 mb)
[Sea-level pressure: 1015.7 mb]
Winds: from the W (260 degrees) at 12 MPH (10 knots; 5.1 m/s)
gusting to 22 MPH (19 knots; 9.8 m/s)
Visibility: 9 miles (14 km)
Ceiling: 3700 feet AGL
Clouds: scattered clouds at 2900 feet AGL
broken clouds at 3700 feet AGL
Weather: -SN  (light snow)

METAR text: CYFC 190500Z AUTO 26010G16KT 9SM FEW055 M02/M05 A2998 RMK SLP155
Conditions at: CYFC (FREDERICTON AIRP, NB, CA) observed 0500 UTC 19 January 2019
Temperature: -2.0°C (28°F)
Dewpoint: -5.0°C (23°F) [RH = 80%]
Pressure (altimeter): 29.98 inches Hg (1015.3 mb)
[Sea-level pressure: 1015.5 mb]
Winds: from the W (260 degrees) at 12 MPH (10 knots; 5.1 m/s)
gusting to 18 MPH (16 knots; 8.2 m/s)
Visibility: 9 miles (14 km)
Ceiling: at least 12,000 feet AGL
Clouds: few clouds at 5500 feet AGL
Weather: no significant weather observed at this time

METAR text: CYFC 190400Z AUTO 22010KT 9SM BKN090 M03/M03 A2995 RMK SLP145
Conditions at: CYFC (FREDERICTON AIRP, NB, CA) observed 0400 UTC 19 January 2019
Temperature: -3.0°C (27°F)
Dewpoint: -3.0°C (27°F) [RH = 100%]
Pressure (altimeter): 29.95 inches Hg (1014.3 mb)
[Sea-level pressure: 1014.5 mb]
Winds: from the SW (220 degrees) at 12 MPH (10 knots; 5.1 m/s)
Visibility: 9 miles (14 km)
Ceiling: 9000 feet AGL
Clouds: broken clouds at 9000 feet AGL
Weather: no significant weather observed at this time

METAR text: CYFC 190351Z AUTO 20010KT 9SM OVC090 M02/M03 A2995 RMK SLP144
Conditions at: CYFC (FREDERICTON AIRP, NB, CA) observed 0351 UTC 19 January 2019
Temperature: -2.0°C (28°F)
Dewpoint: -3.0°C (27°F) [RH = 93%]
Pressure (altimeter): 29.95 inches Hg (1014.3 mb)
[Sea-level pressure: 1014.4 mb]
Winds: from the SSW (200 degrees) at 12 MPH (10 knots; 5.1 m/s)
Visibility: 9 miles (14 km)
Ceiling: 9000 feet AGL
Clouds: overcast cloud deck at 9000 feet AGL
Weather: no significant weather observed at this time

METAR text: CYFC 190317Z AUTO 21009KT 6SM -SN SCT023 BKN028 OVC033 M03/M03 A2994 RMK SLP143
Conditions at: CYFC (FREDERICTON AIRP, NB, CA) observed 0317 UTC 19 January 2019
Temperature: -3.0°C (27°F)
Dewpoint: -3.0°C (27°F) [RH = 100%]
Pressure (altimeter): 29.94 inches Hg (1014.0 mb)
[Sea-level pressure: 1014.3 mb]
Winds: from the SSW (210 degrees) at 10 MPH (9 knots; 4.6 m/s)
Visibility: 6 miles (10 km)
Ceiling: 2800 feet AGL
Clouds: scattered clouds at 2300 feet AGL
broken clouds at 2800 feet AGL
overcast cloud deck at 3300 feet AGL
Weather: -SN  (light snow)

METAR text: CYFC 190305Z AUTO 21008KT 3SM -SN BKN027 OVC033 M03/M04 A2994 RMK SLP143
Conditions at: CYFC (FREDERICTON AIRP, NB, CA) observed 0305 UTC 19 January 2019
Temperature: -3.0°C (27°F)
Dewpoint: -4.0°C (25°F) [RH = 93%]
Pressure (altimeter): 29.94 inches Hg (1014.0 mb)
[Sea-level pressure: 1014.3 mb]
Winds: from the SSW (210 degrees) at 9 MPH (8 knots; 4.1 m/s)
Visibility: 3 miles ( 5 km)
Ceiling: 2700 feet AGL
Clouds: broken clouds at 2700 feet AGL
overcast cloud deck at 3300 feet AGL
Weather: -SN  (light snow)

METAR text: CYFC 190300Z AUTO 21007KT 2 1/2SM -SN BKN025 OVC031 M03/M04 A2994 RMK VIS VRB 1 1/2-3 SLP142
Conditions at: CYFC (FREDERICTON AIRP, NB, CA) observed 0300 UTC 19 January 2019
Temperature: -3.0°C (27°F)
Dewpoint: -4.0°C (25°F) [RH = 93%]
Pressure (altimeter): 29.94 inches Hg (1014.0 mb)
[Sea-level pressure: 1014.2 mb]
Winds: from the SSW (210 degrees) at 8 MPH (7 knots; 3.6 m/s)
Visibility: 2.50 miles (4.02 km)
Ceiling: 2500 feet AGL
Clouds: broken clouds at 2500 feet AGL
overcast cloud deck at 3100 feet AGL
Weather: -SN  (light snow)

METAR text: CYFC 190239Z AUTO 22004KT 2 1/2SM -SN FEW019 OVC029 M04/M05 A2994 RMK SLP142
Conditions at: CYFC (FREDERICTON AIRP, NB, CA) observed 0239 UTC 19 January 2019
Temperature: -4.0°C (25°F)
Dewpoint: -5.0°C (23°F) [RH = 93%]
Pressure (altimeter): 29.94 inches Hg (1014.0 mb)
[Sea-level pressure: 1014.2 mb]
Winds: from the SW (220 degrees) at 5 MPH (4 knots; 2.1 m/s)
Visibility: 2.50 miles (4.02 km)
Ceiling: 2900 feet AGL
Clouds: few clouds at 1900 feet AGL
overcast cloud deck at 2900 feet AGL
Weather: -SN  (light snow)

METAR text: CYFC 190223Z AUTO 22004KT 5SM -SN OVC027 M04/M05 A2994 RMK SLP141
Conditions at: CYFC (FREDERICTON AIRP, NB, CA) observed 0223 UTC 19 January 2019
Temperature: -4.0°C (25°F)
Dewpoint: -5.0°C (23°F) [RH = 93%]
Pressure (altimeter): 29.94 inches Hg (1014.0 mb)
[Sea-level pressure: 1014.1 mb]
Winds: from the SW (220 degrees) at 5 MPH (4 knots; 2.1 m/s)
Visibility: 5 miles ( 8 km)
Ceiling: 2700 feet AGL
Clouds: overcast cloud deck at 2700 feet AGL
Weather: -SN  (light snow)

METAR text: CYFC 190219Z AUTO 21004KT 6SM -SN BKN025 OVC030 M04/M05 A2994 RMK SLP141
Conditions at: CYFC (FREDERICTON AIRP, NB, CA) observed 0219 UTC 19 January 2019
Temperature: -4.0°C (25°F)
Dewpoint: -5.0°C (23°F) [RH = 93%]
Pressure (altimeter): 29.94 inches Hg (1014.0 mb)
[Sea-level pressure: 1014.1 mb]
Winds: from the SSW (210 degrees) at 5 MPH (4 knots; 2.1 m/s)
Visibility: 6 miles (10 km)
Ceiling: 2500 feet AGL
Clouds: broken clouds at 2500 feet AGL
overcast cloud deck at 3000 feet AGL
Weather: -SN  (light snow)

METAR text: CYFC 190209Z AUTO 21004KT 5SM -SN OVC027 M04/M05 A2993 RMK SLP140
Conditions at: CYFC (FREDERICTON AIRP, NB, CA) observed 0209 UTC 19 January 2019
Temperature: -4.0°C (25°F)
Dewpoint: -5.0°C (23°F) [RH = 93%]
Pressure (altimeter): 29.93 inches Hg (1013.6 mb)
[Sea-level pressure: 1014.0 mb]
Winds: from the SSW (210 degrees) at 5 MPH (4 knots; 2.1 m/s)
Visibility: 5 miles ( 8 km)
Ceiling: 2700 feet AGL
Clouds: overcast cloud deck at 2700 feet AGL
Weather: -SN  (light snow)

METAR text: CYFC 190200Z AUTO 21003KT 9SM -SN OVC025 M04/M06 A2993 RMK SLP140
Conditions at: CYFC (FREDERICTON AIRP, NB, CA) observed 0200 UTC 19 January 2019
Temperature: -4.0°C (25°F)
Dewpoint: -6.0°C (21°F) [RH = 86%]
Pressure (altimeter): 29.93 inches Hg (1013.6 mb)
[Sea-level pressure: 1014.0 mb]
Winds: from the SSW (210 degrees) at 3 MPH (3 knots; 1.5 m/s)
Visibility: 9 miles (14 km)
Ceiling: 2500 feet AGL
Clouds: overcast cloud deck at 2500 feet AGL
Weather: -SN  (light snow)

METAR text: CYFC 190136Z AUTO 18003KT 9SM -SN SCT022 OVC027 M04/M06 A2993 RMK SLP140
Conditions at: CYFC (FREDERICTON AIRP, NB, CA) observed 0136 UTC 19 January 2019
Temperature: -4.0°C (25°F)
Dewpoint: -6.0°C (21°F) [RH = 86%]
Pressure (altimeter): 29.93 inches Hg (1013.6 mb)
[Sea-level pressure: 1014.0 mb]
Winds: from the S (180 degrees) at 3 MPH (3 knots; 1.5 m/s)
Visibility: 9 miles (14 km)
Ceiling: 2700 feet AGL
Clouds: scattered clouds at 2200 feet AGL
overcast cloud deck at 2700 feet AGL
Weather: -SN  (light snow)

METAR text: CYFC 190100Z AUTO 22002KT 9SM -SN BKN022 OVC028 M05/M07 A2994 RMK SLP143
Conditions at: CYFC (FREDERICTON AIRP, NB, CA) observed 0100 UTC 19 January 2019
Temperature: -5.0°C (23°F)
Dewpoint: -7.0°C (19°F) [RH = 86%]
Pressure (altimeter): 29.94 inches Hg (1014.0 mb)
[Sea-level pressure: 1014.3 mb]
Winds: from the SW (220 degrees) at 2 MPH (2 knots; 1.0 m/s)
Visibility: 9 miles (14 km)
Ceiling: 2200 feet AGL
Clouds: broken clouds at 2200 feet AGL
overcast cloud deck at 2800 feet AGL
Weather: -SN  (light snow)

METAR text: CYFC 190056Z AUTO 19002KT 9SM -SN BKN022 OVC026 M05/M07 A2994 RMK SLP142
Conditions at: CYFC (FREDERICTON AIRP, NB, CA) observed 0056 UTC 19 January 2019
Temperature: -5.0°C (23°F)
Dewpoint: -7.0°C (19°F) [RH = 86%]
Pressure (altimeter): 29.94 inches Hg (1014.0 mb)
[Sea-level pressure: 1014.2 mb]
Winds: from the S (190 degrees) at 2 MPH (2 knots; 1.0 m/s)
Visibility: 9 miles (14 km)
Ceiling: 2200 feet AGL
Clouds: broken clouds at 2200 feet AGL
overcast cloud deck at 2600 feet AGL
Weather: -SN  (light snow)

METAR text: CYFC 190001Z AUTO 16003KT 9SM -SN OVC032 M05/M08 A2996 RMK SLP150
Conditions at: CYFC (FREDERICTON AIRP, NB, CA) observed 0001 UTC 19 January 2019
Temperature: -5.0°C (23°F)
Dewpoint: -8.0°C (18°F) [RH = 79%]
Pressure (altimeter): 29.96 inches Hg (1014.6 mb)
[Sea-level pressure: 1015.0 mb]
Winds: from the SSE (160 degrees) at 3 MPH (3 knots; 1.5 m/s)
Visibility: 9 miles (14 km)
Ceiling: 3200 feet AGL
Clouds: overcast cloud deck at 3200 feet AGL
Weather: -SN  (light snow)

METAR text: CYFC 190000Z AUTO 16003KT 9SM OVC032 M05/M08 A2996 RMK SLP150
Conditions at: CYFC (FREDERICTON AIRP, NB, CA) observed 0000 UTC 19 January 2019
Temperature: -5.0°C (23°F)
Dewpoint: -8.0°C (18°F) [RH = 79%]
Pressure (altimeter): 29.96 inches Hg (1014.6 mb)
[Sea-level pressure: 1015.0 mb]
Winds: from the SSE (160 degrees) at 3 MPH (3 knots; 1.5 m/s)
Visibility: 9 miles (14 km)
Ceiling: 3200 feet AGL
Clouds: overcast cloud deck at 3200 feet AGL
Weather: no significant weather observed at this time

METAR text: CYFC 182300Z AUTO 13005KT 9SM OVC036 M05/M09 A2999 RMK SLP158
Conditions at: CYFC (FREDERICTON AIRP, NB, CA) observed 2300 UTC 18 January 2019
Temperature: -5.0°C (23°F)
Dewpoint: -9.0°C (16°F) [RH = 73%]
Pressure (altimeter): 29.99 inches Hg (1015.7 mb)
[Sea-level pressure: 1015.8 mb]
Winds: from the SE (130 degrees) at 6 MPH (5 knots; 2.6 m/s)
Visibility: 9 miles (14 km)
Ceiling: 3600 feet AGL
Clouds: overcast cloud deck at 3600 feet AGL
Weather: no significant weather observed at this time

METAR text: CYFC 182200Z AUTO 15006KT 9SM OVC044 M05/M09 A3001 RMK SLP164
Conditions at: CYFC (FREDERICTON AIRP, NB, CA) observed 2200 UTC 18 January 2019
Temperature: -5.0°C (23°F)
Dewpoint: -9.0°C (16°F) [RH = 73%]
Pressure (altimeter): 30.01 inches Hg (1016.3 mb)
[Sea-level pressure: 1016.4 mb]
Winds: from the SSE (150 degrees) at 7 MPH (6 knots; 3.1 m/s)
Visibility: 9 miles (14 km)
Ceiling: 4400 feet AGL
Clouds: overcast cloud deck at 4400 feet AGL
Weather: no significant weather observed at this time

METAR text: CYFC 182100Z AUTO 15004KT 9SM BKN046 OVC130 M04/M08 A3003 RMK SLP171
Conditions at: CYFC (FREDERICTON AIRP, NB, CA) observed 2100 UTC 18 January 2019
Temperature: -4.0°C (25°F)
Dewpoint: -8.0°C (18°F) [RH = 74%]
Pressure (altimeter): 30.03 inches Hg (1017.0 mb)
[Sea-level pressure: 1017.1 mb]
Winds: from the SSE (150 degrees) at 5 MPH (4 knots; 2.1 m/s)
Visibility: 9 miles (14 km)
Ceiling: 4600 feet AGL
Clouds: broken clouds at 4600 feet AGL
overcast cloud deck at 13000 feet AGL
Weather: no significant weather observed at this time

METAR text: CYFC 182007Z AUTO 14009KT 9SM SCT024 BKN032 OVC048 M04/M07 A3005 RMK SLP178
Conditions at: CYFC (FREDERICTON AIRP, NB, CA) observed 2007 UTC 18 January 2019
Temperature: -4.0°C (25°F)
Dewpoint: -7.0°C (19°F) [RH = 80%]
Pressure (altimeter): 30.05 inches Hg (1017.7 mb)
[Sea-level pressure: 1017.8 mb]
Winds: from the SE (140 degrees) at 10 MPH (9 knots; 4.6 m/s)
Visibility: 9 miles (14 km)
Ceiling: 3200 feet AGL
Clouds: scattered clouds at 2400 feet AGL
broken clouds at 3200 feet AGL
overcast cloud deck at 4800 feet AGL
Weather: no significant weather observed at this time

METAR text: CYFC 182000Z AUTO 15008KT 9SM BKN024 BKN032 OVC049 M04/M07 A3005 RMK SLP180
Conditions at: CYFC (FREDERICTON AIRP, NB, CA) observed 2000 UTC 18 January 2019
Temperature: -4.0°C (25°F)
Dewpoint: -7.0°C (19°F) [RH = 80%]
Pressure (altimeter): 30.05 inches Hg (1017.7 mb)
[Sea-level pressure: 1018.0 mb]
Winds: from the SSE (150 degrees) at 9 MPH (8 knots; 4.1 m/s)
Visibility: 9 miles (14 km)
Ceiling: 2400 feet AGL
Clouds: broken clouds at 2400 feet AGL
broken clouds at 3200 feet AGL
overcast cloud deck at 4900 feet AGL
Weather: no significant weather observed at this time

METAR text: CYFC 181944Z AUTO 16009KT 9SM BKN024 BKN049 OVC140 M04/M07 A3006 RMK SLP182
Conditions at: CYFC (FREDERICTON AIRP, NB, CA) observed 1944 UTC 18 January 2019
Temperature: -4.0°C (25°F)
Dewpoint: -7.0°C (19°F) [RH = 80%]
Pressure (altimeter): 30.06 inches Hg (1018.0 mb)
[Sea-level pressure: 1018.2 mb]
Winds: from the SSE (160 degrees) at 10 MPH (9 knots; 4.6 m/s)
Visibility: 9 miles (14 km)
Ceiling: 2400 feet AGL
Clouds: broken clouds at 2400 feet AGL
broken clouds at 4900 feet AGL
overcast cloud deck at 14000 feet AGL
Weather: no significant weather observed at this time

METAR text: CYFC 181900Z AUTO 14011G17KT 9SM FEW020 SCT140 M04/M07 A3007 RMK SLP186
Conditions at: CYFC (FREDERICTON AIRP, NB, CA) observed 1900 UTC 18 January 2019
Temperature: -4.0°C (25°F)
Dewpoint: -7.0°C (19°F) [RH = 80%]
Pressure (altimeter): 30.07 inches Hg (1018.4 mb)
[Sea-level pressure: 1018.6 mb]
Winds: from the SE (140 degrees) at 13 MPH (11 knots; 5.7 m/s)
gusting to 20 MPH (17 knots; 8.7 m/s)
Visibility: 9 miles (14 km)
Ceiling: at least 12,000 feet AGL
Clouds: few clouds at 2000 feet AGL
scattered clouds at 14000 feet AGL
Weather: no significant weather observed at this time

METAR text: CYFC 181851Z AUTO 15011G19KT 9SM SCT020 BKN140 M04/M07 A3008 RMK SLP188
Conditions at: CYFC (FREDERICTON AIRP, NB, CA) observed 1851 UTC 18 January 2019
Temperature: -4.0°C (25°F)
Dewpoint: -7.0°C (19°F) [RH = 80%]
Pressure (altimeter): 30.08 inches Hg (1018.7 mb)
[Sea-level pressure: 1018.8 mb]
Winds: from the SSE (150 degrees) at 13 MPH (11 knots; 5.7 m/s)
gusting to 22 MPH (19 knots; 9.8 m/s)
Visibility: 9 miles (14 km)
Ceiling: 14000 feet AGL
Clouds: scattered clouds at 2000 feet AGL
broken clouds at 14000 feet AGL
Weather: no significant weather observed at this time

METAR text: CYFC 181810Z AUTO 15012KT 050V170 9SM BKN020 OVC029 M06/M08 A3011 RMK SLP198
Conditions at: CYFC (FREDERICTON AIRP, NB, CA) observed 1810 UTC 18 January 2019
Temperature: -6.0°C (21°F)
Dewpoint: -8.0°C (18°F) [RH = 86%]
Pressure (altimeter): 30.11 inches Hg (1019.7 mb)
[Sea-level pressure: 1019.8 mb]
Winds: from the SSE (150 degrees) at 14 MPH (12 knots; 6.2 m/s)
Visibility: 9 miles (14 km)
Ceiling: 2000 feet AGL
Clouds: broken clouds at 2000 feet AGL
overcast cloud deck at 2900 feet AGL
Weather: no significant weather observed at this time

METAR text: CYFC 181800Z AUTO VRB02KT 9SM BKN020 OVC029 M09/M13 A3011 RMK SLP201
Conditions at: CYFC (FREDERICTON AIRP, NB, CA) observed 1800 UTC 18 January 2019
Temperature: -9.0°C (16°F)
Dewpoint: -13.0°C ( 9°F) [RH = 73%]
Pressure (altimeter): 30.11 inches Hg (1019.7 mb)
[Sea-level pressure: 1020.1 mb]
Winds: variable direction winds at 2 MPH (2 knots; 1.0 m/s)
Visibility: 9 miles (14 km)
Ceiling: 2000 feet AGL
Clouds: broken clouds at 2000 feet AGL
overcast cloud deck at 2900 feet AGL
Weather: no significant weather observed at this time

METAR text: CYFC 181700Z AUTO VRB02KT 9SM OVC020 M12/M16 A3016 RMK SLP216
Conditions at: CYFC (FREDERICTON AIRP, NB, CA) observed 1700 UTC 18 January 2019
Temperature: -12.0°C (10°F)
Dewpoint: -16.0°C ( 3°F) [RH = 72%]
Pressure (altimeter): 30.16 inches Hg (1021.4 mb)
[Sea-level pressure: 1021.6 mb]
Winds: variable direction winds at 2 MPH (2 knots; 1.0 m/s)
Visibility: 9 miles (14 km)
Ceiling: 2000 feet AGL
Clouds: overcast cloud deck at 2000 feet AGL
Weather: no significant weather observed at this time

METAR text: CYFC 181601Z AUTO 00000KT 9SM BKN022 OVC075 M15/M19 A3021 RMK SLP234
Conditions at: CYFC (FREDERICTON AIRP, NB, CA) observed 1601 UTC 18 January 2019
Temperature: -15.0°C ( 5°F)
Dewpoint: -19.0°C (-2°F) [RH = 71%]
Pressure (altimeter): 30.21 inches Hg (1023.1 mb)
[Sea-level pressure: 1023.4 mb]
Winds: calm
Visibility: 9 miles (14 km)
Ceiling: 2200 feet AGL
Clouds: broken clouds at 2200 feet AGL
overcast cloud deck at 7500 feet AGL
Weather: no significant weather observed at this time

METAR text: CYFC 181500Z AUTO 35004KT 330V050 9SM BKN028 BKN070 OVC098 M17/M20 A3026 RMK SLP250
Conditions at: CYFC (FREDERICTON AIRP, NB, CA) observed 1500 UTC 18 January 2019
Temperature: -17.0°C ( 1°F)
Dewpoint: -20.0°C (-4°F) [RH = 77%]
Pressure (altimeter): 30.26 inches Hg (1024.8 mb)
[Sea-level pressure: 1025.0 mb]
Winds: from the N (350 degrees) at 5 MPH (4 knots; 2.1 m/s)
Visibility: 9 miles (14 km)
Ceiling: 2800 feet AGL
Clouds: broken clouds at 2800 feet AGL
broken clouds at 7000 feet AGL
overcast cloud deck at 9800 feet AGL
Weather: no significant weather observed at this time

METAR text: CYFC 181400Z AUTO 07002KT 9SM FEW070 OVC085 M19/M22 A3028 RMK SLP257
Conditions at: CYFC (FREDERICTON AIRP, NB, CA) observed 1400 UTC 18 January 2019
Temperature: -19.0°C (-2°F)
Dewpoint: -22.0°C (-8°F) [RH = 77%]
Pressure (altimeter): 30.28 inches Hg (1025.5 mb)
[Sea-level pressure: 1025.7 mb]
Winds: from the ENE (70 degrees) at 2 MPH (2 knots; 1.0 m/s)
Visibility: 9 miles (14 km)
Ceiling: 8500 feet AGL
Clouds: few clouds at 7000 feet AGL
overcast cloud deck at 8500 feet AGL
Weather: no significant weather observed at this time

METAR text: CYFC 181300Z AUTO 09003KT 9SM OVC085 M20/M22 A3028 RMK SLP257
Conditions at: CYFC (FREDERICTON AIRP, NB, CA) observed 1300 UTC 18 January 2019
Temperature: -20.0°C (-4°F)
Dewpoint: -22.0°C (-8°F) [RH = 84%]
Pressure (altimeter): 30.28 inches Hg (1025.5 mb)
[Sea-level pressure: 1025.7 mb]
Winds: from the E (90 degrees) at 3 MPH (3 knots; 1.5 m/s)
Visibility: 9 miles (14 km)
Ceiling: 8500 feet AGL
Clouds: overcast cloud deck at 8500 feet AGL
Weather: no significant weather observed at this time

METAR text: CYFC 181200Z AUTO 34004KT 9SM BKN060 OVC150 M21/M23 A3030 RMK SLP266
Conditions at: CYFC (FREDERICTON AIRP, NB, CA) observed 1200 UTC 18 January 2019
Temperature: -21.0°C (-6°F)
Dewpoint: -23.0°C (-9°F) [RH = 84%]
Pressure (altimeter): 30.30 inches Hg (1026.2 mb)
[Sea-level pressure: 1026.6 mb]
Winds: from the NNW (340 degrees) at 5 MPH (4 knots; 2.1 m/s)
Visibility: 9 miles (14 km)
Ceiling: 6000 feet AGL
Clouds: broken clouds at 6000 feet AGL
overcast cloud deck at 15000 feet AGL
Weather: no significant weather observed at this time

METAR text: CYFC 181100Z AUTO 02002KT 9SM FEW080 OVC160 M22/M24 A3030 RMK SLP266
Conditions at: CYFC (FREDERICTON AIRP, NB, CA) observed 1100 UTC 18 January 2019
Temperature: -22.0°C (-8°F)
Dewpoint: -24.0°C (-11°F) [RH = 84%]
Pressure (altimeter): 30.30 inches Hg (1026.2 mb)
[Sea-level pressure: 1026.6 mb]
Winds: from the NNE (20 degrees) at 2 MPH (2 knots; 1.0 m/s)
Visibility: 9 miles (14 km)
Ceiling: 16000 feet AGL
Clouds: few clouds at 8000 feet AGL
overcast cloud deck at 16000 feet AGL
Weather: no significant weather observed at this time

METAR text: CYFC 181000Z AUTO 00000KT 9SM FEW080 BKN170 M22/M24 A3030 RMK SLP266
Conditions at: CYFC (FREDERICTON AIRP, NB, CA) observed 1000 UTC 18 January 2019
Temperature: -22.0°C (-8°F)
Dewpoint: -24.0°C (-11°F) [RH = 84%]
Pressure (altimeter): 30.30 inches Hg (1026.2 mb)
[Sea-level pressure: 1026.6 mb]
Winds: calm
Visibility: 9 miles (14 km)
Ceiling: 17000 feet AGL
Clouds: few clouds at 8000 feet AGL
broken clouds at 17000 feet AGL
Weather: no significant weather observed at this time

METAR text: CYFC 180900Z AUTO 01002KT 9SM BKN080 BKN160 M23/M25 A3033 RMK PRESFR SLP275
Conditions at: CYFC (FREDERICTON AIRP, NB, CA) observed 0900 UTC 18 January 2019
Temperature: -23.0°C (-9°F)
Dewpoint: -25.0°C (-13°F) [RH = 84%]
Pressure (altimeter): 30.33 inches Hg (1027.2 mb)
[Sea-level pressure: 1027.5 mb]
Winds: from the N (10 degrees) at 2 MPH (2 knots; 1.0 m/s)
Visibility: 9 miles (14 km)
Ceiling: 8000 feet AGL
Clouds: broken clouds at 8000 feet AGL
broken clouds at 16000 feet AGL
Weather: no significant weather observed at this time

METAR text: CYFC 180800Z AUTO 00000KT 9SM FEW120 M22/M24 A3036 RMK SLP285
Conditions at: CYFC (FREDERICTON AIRP, NB, CA) observed 0800 UTC 18 January 2019
Temperature: -22.0°C (-8°F)
Dewpoint: -24.0°C (-11°F) [RH = 84%]
Pressure (altimeter): 30.36 inches Hg (1028.2 mb)
[Sea-level pressure: 1028.5 mb]
Winds: calm
Visibility: 9 miles (14 km)
Ceiling: at least 12,000 feet AGL
Clouds: few clouds at 12000 feet AGL
Weather: no significant weather observed at this time

METAR text: CYFC 180700Z AUTO VRB02KT 9SM OVC130 M22/M25 A3037 RMK SLP289
Conditions at: CYFC (FREDERICTON AIRP, NB, CA) observed 0700 UTC 18 January 2019
Temperature: -22.0°C (-8°F)
Dewpoint: -25.0°C (-13°F) [RH = 77%]
Pressure (altimeter): 30.37 inches Hg (1028.5 mb)
[Sea-level pressure: 1028.9 mb]
Winds: variable direction winds at 2 MPH (2 knots; 1.0 m/s)
Visibility: 9 miles (14 km)
Ceiling: 13000 feet AGL
Clouds: overcast cloud deck at 13000 feet AGL
Weather: no significant weather observed at this time

METAR text: CYFC 180600Z AUTO 34002KT 9SM CLR M23/M25 A3038 RMK SLP290
Conditions at: CYFC (FREDERICTON AIRP, NB, CA) observed 0600 UTC 18 January 2019
Temperature: -23.0°C (-9°F)
Dewpoint: -25.0°C (-13°F) [RH = 84%]
Pressure (altimeter): 30.38 inches Hg (1028.9 mb)
[Sea-level pressure: 1029.0 mb]
Winds: from the NNW (340 degrees) at 2 MPH (2 knots; 1.0 m/s)
Visibility: 9 miles (14 km)
Ceiling: at least 12,000 feet AGL
Clouds: sky clear below 12,000 feet AGL
Weather: no significant weather observed at this time

METAR text: CYFC 180500Z AUTO 00000KT 9SM CLR M24/M26 A3038 RMK SLP292
Conditions at: CYFC (FREDERICTON AIRP, NB, CA) observed 0500 UTC 18 January 2019
Temperature: -24.0°C (-11°F)
Dewpoint: -26.0°C (-15°F) [RH = 84%]
Pressure (altimeter): 30.38 inches Hg (1028.9 mb)
[Sea-level pressure: 1029.2 mb]
Winds: calm
Visibility: 9 miles (14 km)
Ceiling: at least 12,000 feet AGL
Clouds: sky clear below 12,000 feet AGL
Weather: no significant weather observed at this time

METAR text: CYFC 180400Z AUTO 21002KT 9SM CLR M24/M26 A3039 RMK SLP296
Conditions at: CYFC (FREDERICTON AIRP, NB, CA) observed 0400 UTC 18 January 2019
Temperature: -24.0°C (-11°F)
Dewpoint: -26.0°C (-15°F) [RH = 84%]
Pressure (altimeter): 30.39 inches Hg (1029.2 mb)
[Sea-level pressure: 1029.6 mb]
Winds: from the SSW (210 degrees) at 2 MPH (2 knots; 1.0 m/s)
Visibility: 9 miles (14 km)
Ceiling: at least 12,000 feet AGL
Clouds: sky clear below 12,000 feet AGL
Weather: no significant weather observed at this time

METAR text: CYFC 180300Z AUTO 18002KT 9SM CLR M23/M25 A3040 RMK SLP297
Conditions at: CYFC (FREDERICTON AIRP, NB, CA) observed 0300 UTC 18 January 2019
Temperature: -23.0°C (-9°F)
Dewpoint: -25.0°C (-13°F) [RH = 84%]
Pressure (altimeter): 30.40 inches Hg (1029.5 mb)
[Sea-level pressure: 1029.7 mb]
Winds: from the S (180 degrees) at 2 MPH (2 knots; 1.0 m/s)
Visibility: 9 miles (14 km)
Ceiling: at least 12,000 feet AGL
Clouds: sky clear below 12,000 feet AGL
Weather: no significant weather observed at this time

METAR text: CYFC 180200Z AUTO 00000KT 9SM CLR M22/M24 A3038 RMK SLP293
Conditions at: CYFC (FREDERICTON AIRP, NB, CA) observed 0200 UTC 18 January 2019
Temperature: -22.0°C (-8°F)
Dewpoint: -24.0°C (-11°F) [RH = 84%]
Pressure (altimeter): 30.38 inches Hg (1028.9 mb)
[Sea-level pressure: 1029.3 mb]
Winds: calm
Visibility: 9 miles (14 km)
Ceiling: at least 12,000 feet AGL
Clouds: sky clear below 12,000 feet AGL
Weather: no significant weather observed at this time

METAR text: CYFC 180100Z AUTO 22005KT 9SM CLR M22/M24 A3038 RMK SLP291
Conditions at: CYFC (FREDERICTON AIRP, NB, CA) observed 0100 UTC 18 January 2019
Temperature: -22.0°C (-8°F)
Dewpoint: -24.0°C (-11°F) [RH = 84%]
Pressure (altimeter): 30.38 inches Hg (1028.9 mb)
[Sea-level pressure: 1029.1 mb]
Winds: from the SW (220 degrees) at 6 MPH (5 knots; 2.6 m/s)
Visibility: 9 miles (14 km)
Ceiling: at least 12,000 feet AGL
Clouds: sky clear below 12,000 feet AGL
Weather: no significant weather observed at this time

Forecast for: CYFC (FREDERICTON AIRP, NB, CA)
Text: TAF CYFC 191138Z 1912/1924 01008KT P6SM SKC
Forecast period: 1200 to 2100 UTC 19 January 2019
Forecast type: FROM: standard forecast or significant change
Winds: from the N (10 degrees) at 9 MPH (8 knots; 4.1 m/s)
Visibility: 6 or more miles 10+ km)
Clouds: clear skies
Weather: no significant weather forecast for this period
Text: FM192100 31005KT P6SM -SN BKN110 RMK FCST BASED ON AUTO OBS. NXT FCST BY 191800Z
Forecast period: 2100 UTC 19 January 2019 to 0000 UTC 20 January 2019
Forecast type: FROM: standard forecast or significant change
Winds: from the NW (310 degrees) at 6 MPH (5 knots; 2.6 m/s)
Visibility: 6 or more miles 10+ km)
Ceiling: 11000 feet AGL
Clouds: broken clouds at 11000 feet AGL
Weather: -SN  (light snow)